createdAt,value
2023-05-13T00:00:02.050Z,3.58
2023-05-13T00:02:31.758Z,3.38
2023-05-13T00:04:58.792Z,3.05
2023-05-13T00:07:25.969Z,3.70
2023-05-13T00:09:53.077Z,3.17
2023-05-13T00:12:20.060Z,3.20
2023-05-13T00:14:46.996Z,3.03
2023-05-13T00:17:14.512Z,3.30
2023-05-13T00:19:41.477Z,2.67
2023-05-13T00:22:08.817Z,3.10
2023-05-13T00:24:36.205Z,3.28
2023-05-13T00:27:03.336Z,2.60
2023-05-13T00:29:31.491Z,2.97
2023-05-13T00:31:58.677Z,3.13
2023-05-13T00:34:25.615Z,3.10
2023-05-13T00:36:52.925Z,3.22
2023-05-13T00:39:19.953Z,2.83
2023-05-13T00:41:47.045Z,2.95
2023-05-13T00:44:14.669Z,2.72
2023-05-13T00:46:42.575Z,3.10
2023-05-13T00:49:09.420Z,3.38
2023-05-13T00:51:37.271Z,2.90
2023-05-13T00:54:05.202Z,3.45
2023-05-13T00:56:32.382Z,3.33
2023-05-13T00:58:59.375Z,3.30
2023-05-13T01:01:35.085Z,3.30
2023-05-13T01:04:26.806Z,3.08
2023-05-13T01:07:34.239Z,3.20
2023-05-13T01:10:32.819Z,2.70
2023-05-13T01:13:08.365Z,3.25
2023-05-13T01:15:46.777Z,3.03
2023-05-13T01:18:25.616Z,2.90
2023-05-13T01:20:54.149Z,2.70
2023-05-13T01:23:21.217Z,3.22
2023-05-13T01:25:50.399Z,3.63
2023-05-13T01:28:17.514Z,3.13
2023-05-13T01:30:49.425Z,2.85
2023-05-13T01:33:17.712Z,3.35
2023-05-13T01:35:46.350Z,3.60
2023-05-13T01:38:16.021Z,3.40
2023-05-13T01:40:48.688Z,3.45
2023-05-13T01:43:15.885Z,3.10
2023-05-13T01:45:42.948Z,3.15
2023-05-13T01:48:11.070Z,3.42
2023-05-13T01:50:42.998Z,3.47
2023-05-13T01:53:10.289Z,3.65
2023-05-13T01:55:39.356Z,3.30
2023-05-13T01:58:09.828Z,3.30
2023-05-13T02:00:36.854Z,3.70
2023-05-13T02:03:04.215Z,3.67
2023-05-13T02:05:33.166Z,3.50
2023-05-13T02:08:04.432Z,3.30
2023-05-13T02:10:31.512Z,3.38
2023-05-13T02:13:01.197Z,3.28
2023-05-13T02:15:28.354Z,3.40
2023-05-13T02:17:55.602Z,3.17
2023-05-13T02:20:22.944Z,3.20
2023-05-13T02:22:50.957Z,3.70
2023-05-13T02:25:17.911Z,3.40
2023-05-13T02:27:44.958Z,3.25
2023-05-13T02:30:12.877Z,3.15
2023-05-13T02:32:43.984Z,3.53
2023-05-13T02:35:11.395Z,4.03
2023-05-13T02:37:38.679Z,3.67
2023-05-13T02:40:06.922Z,3.67
2023-05-13T02:42:33.897Z,3.83
2023-05-13T02:45:01.378Z,3.05
2023-05-13T02:47:31.126Z,3.42
2023-05-13T02:50:05.751Z,3.35
2023-05-13T02:52:35.981Z,3.25
2023-05-13T02:55:03.917Z,3.20
2023-05-13T02:57:31.155Z,3.50
2023-05-13T02:59:58.802Z,3.13
2023-05-13T03:02:25.964Z,3.30
2023-05-13T03:04:54.885Z,3.55
2023-05-13T03:07:23.610Z,3.15
2023-05-13T03:09:51.188Z,3.63
2023-05-13T03:12:18.106Z,3.47
2023-05-13T03:14:45.299Z,3.50
2023-05-13T03:17:12.522Z,3.90
2023-05-13T03:19:39.926Z,3.72
2023-05-13T03:22:07.225Z,3.78
2023-05-13T03:24:34.207Z,3.50
2023-05-13T03:27:02.019Z,3.90
2023-05-13T03:29:29.886Z,3.97
2023-05-13T03:31:58.913Z,3.53
2023-05-13T03:34:26.224Z,3.97
2023-05-13T03:36:53.598Z,3.53
2023-05-13T03:39:20.671Z,4.32
2023-05-13T03:41:47.733Z,3.92
2023-05-13T03:44:14.891Z,3.25
2023-05-13T03:46:42.847Z,3.42
2023-05-13T03:49:09.978Z,3.22
2023-05-13T03:51:36.988Z,3.58
2023-05-13T03:54:04.534Z,3.80
2023-05-13T03:56:31.453Z,3.42
2023-05-13T03:58:59.599Z,3.63
2023-05-13T04:01:26.602Z,3.70
2023-05-13T04:03:54.097Z,4.05
2023-05-13T04:06:21.697Z,3.47
2023-05-13T04:08:49.930Z,4.28
2023-05-13T04:11:16.878Z,3.75
2023-05-13T04:13:45.801Z,4.07
2023-05-13T04:16:12.709Z,4.47
2023-05-13T04:18:39.698Z,3.75
2023-05-13T04:21:11.376Z,4.00
2023-05-13T04:23:38.496Z,3.50
2023-05-13T04:26:05.631Z,4.00
2023-05-13T04:28:32.583Z,3.50
2023-05-13T04:31:00.711Z,3.28
2023-05-13T04:33:27.873Z,3.97
2023-05-13T04:35:54.976Z,3.83
2023-05-13T04:38:22.662Z,3.88
2023-05-13T04:40:49.678Z,4.00
2023-05-13T04:43:22.427Z,3.47
2023-05-13T04:45:53.895Z,3.80
2023-05-13T04:48:21.473Z,4.03
2023-05-13T04:50:49.002Z,3.80
2023-05-13T04:53:17.250Z,3.97
2023-05-13T04:55:48.935Z,4.07
2023-05-13T04:58:16.620Z,3.70
2023-05-13T05:00:43.910Z,4.00
2023-05-13T05:03:12.150Z,3.38
2023-05-13T05:05:39.406Z,3.38
2023-05-13T05:08:08.284Z,3.80
2023-05-13T05:10:37.129Z,4.07
2023-05-13T05:13:05.141Z,4.00
2023-05-13T05:15:32.319Z,3.30
2023-05-13T05:18:01.536Z,4.13
2023-05-13T05:20:28.537Z,3.55
2023-05-13T05:22:58.295Z,3.53
2023-05-13T05:25:26.855Z,3.67
2023-05-13T05:27:53.858Z,3.63
2023-05-13T05:30:21.291Z,3.40
2023-05-13T05:32:56.449Z,3.40
2023-05-13T05:35:24.045Z,3.40
2023-05-13T05:37:52.370Z,3.65
2023-05-13T05:40:21.427Z,3.28
2023-05-13T05:42:48.788Z,3.70
2023-05-13T05:45:15.832Z,2.92
2023-05-13T05:47:43.352Z,3.22
2023-05-13T05:50:11.420Z,3.33
2023-05-13T05:52:38.466Z,3.40
2023-05-13T05:55:07.106Z,3.13
2023-05-13T05:57:35.382Z,2.88
2023-05-13T06:00:02.414Z,3.55
2023-05-13T06:02:29.780Z,2.80
2023-05-13T06:04:57.011Z,3.13
2023-05-13T06:07:24.704Z,3.40
2023-05-13T06:09:51.772Z,3.15
2023-05-13T06:12:18.978Z,3.13
2023-05-13T06:14:46.001Z,2.88
2023-05-13T06:17:14.833Z,3.33
2023-05-13T06:19:42.642Z,3.05
2023-05-13T06:22:10.892Z,3.05
2023-05-13T06:24:39.137Z,3.25
2023-05-13T06:27:07.153Z,3.30
2023-05-13T06:29:35.084Z,2.92
2023-05-13T06:32:02.024Z,3.13
2023-05-13T06:34:29.177Z,3.15
2023-05-13T06:36:56.250Z,3.70
2023-05-13T06:39:23.265Z,3.22
2023-05-13T06:41:50.508Z,3.28
2023-05-13T06:44:17.521Z,2.95
2023-05-13T06:46:46.831Z,2.67
2023-05-13T06:49:13.838Z,2.83
2023-05-13T06:51:40.894Z,2.50
2023-05-13T06:54:07.963Z,2.47
2023-05-13T06:56:35.565Z,2.50
2023-05-13T06:59:02.545Z,2.75
2023-05-13T07:01:29.680Z,2.45
2023-05-13T07:03:56.909Z,2.60
2023-05-13T07:06:24.020Z,2.17
2023-05-13T07:08:51.328Z,2.50
2023-05-13T07:11:18.252Z,2.55
2023-05-13T07:13:45.373Z,2.50
2023-05-13T07:16:12.458Z,3.15
2023-05-13T07:18:39.520Z,2.42
2023-05-13T07:21:06.689Z,2.33
2023-05-13T07:23:33.814Z,2.13
2023-05-13T07:26:00.919Z,2.60
2023-05-13T07:28:27.842Z,2.40
2023-05-13T07:30:54.957Z,2.03
2023-05-13T07:33:22.006Z,2.20
2023-05-13T07:35:49.162Z,2.55
2023-05-13T07:38:16.803Z,2.40
2023-05-13T07:40:43.898Z,2.47
2023-05-13T07:43:11.726Z,2.33
2023-05-13T07:45:39.227Z,2.80
2023-05-13T07:48:06.592Z,2.22
2023-05-13T07:50:33.729Z,2.53
2023-05-13T07:53:00.673Z,2.28
2023-05-13T07:55:27.620Z,2.20
2023-05-13T07:57:54.665Z,2.58
2023-05-13T08:00:21.574Z,2.30
2023-05-13T08:02:48.658Z,2.40
2023-05-13T08:05:15.804Z,2.67
2023-05-13T08:07:42.881Z,2.92
2023-05-13T08:10:10.413Z,2.38
2023-05-13T08:12:37.499Z,2.50
2023-05-13T08:15:05.367Z,2.58
2023-05-13T08:17:32.428Z,2.58
2023-05-13T08:20:00.156Z,2.63
2023-05-13T08:22:27.545Z,2.70
2023-05-13T08:24:54.515Z,2.53
2023-05-13T08:27:21.474Z,2.25
2023-05-13T08:29:48.444Z,2.40
2023-05-13T08:32:15.551Z,2.78
2023-05-13T08:34:42.677Z,2.83
2023-05-13T08:37:09.815Z,2.22
2023-05-13T08:39:36.954Z,2.40
2023-05-13T08:42:05.062Z,2.35
2023-05-13T08:44:32.843Z,2.50
2023-05-13T08:47:23.717Z,2.50
2023-05-13T08:49:51.467Z,2.97
2023-05-13T08:52:22.518Z,2.45
2023-05-13T08:54:50.102Z,2.40
2023-05-13T08:57:17.389Z,2.55
2023-05-13T08:59:44.600Z,2.60
2023-05-13T09:02:12.164Z,2.88
2023-05-13T09:04:42.242Z,2.50
2023-05-13T09:07:09.327Z,2.30
2023-05-13T09:09:36.791Z,2.40
2023-05-13T09:12:04.458Z,2.85
2023-05-13T09:14:32.797Z,4.10
2023-05-13T09:17:01.891Z,2.78
2023-05-13T09:19:29.217Z,2.33
2023-05-13T09:21:57.486Z,1.92
2023-05-13T09:24:24.590Z,2.00
2023-05-13T09:26:52.054Z,2.30
2023-05-13T09:29:19.109Z,2.10
2023-05-13T09:31:49.554Z,1.88
2023-05-13T09:34:26.777Z,2.22
2023-05-13T09:37:07.798Z,2.35
2023-05-13T09:39:43.875Z,2.30
2023-05-13T09:42:18.751Z,2.10
2023-05-13T09:44:47.658Z,2.00
2023-05-13T09:47:16.217Z,2.00
2023-05-13T09:49:45.454Z,2.05
2023-05-13T09:52:16.748Z,2.28
2023-05-13T09:54:45.003Z,2.30
2023-05-13T09:57:14.086Z,2.08
2023-05-13T09:59:41.904Z,1.73
2023-05-13T10:02:09.197Z,1.80
2023-05-13T10:04:36.354Z,2.00
2023-05-13T10:07:05.173Z,1.92
2023-05-13T10:09:37.280Z,1.95
2023-05-13T10:12:08.935Z,2.05
2023-05-13T10:14:38.107Z,1.75
2023-05-13T10:17:06.659Z,2.28
2023-05-13T10:19:34.915Z,1.98
2023-05-13T10:22:08.791Z,1.50
2023-05-13T10:24:39.492Z,1.70
2023-05-13T10:27:08.653Z,2.20
2023-05-13T10:29:39.025Z,2.17
2023-05-13T10:32:08.182Z,2.20
2023-05-13T10:34:36.600Z,2.10
2023-05-13T10:37:29.297Z,1.98
2023-05-13T10:40:30.058Z,1.90
2023-05-13T10:43:23.403Z,2.00
2023-05-13T10:45:52.686Z,1.88
2023-05-13T10:48:19.944Z,2.33
2023-05-13T10:50:57.146Z,1.95
2023-05-13T10:53:49.889Z,1.90
2023-05-13T10:56:21.905Z,1.80
2023-05-13T10:59:04.924Z,2.10
2023-05-13T11:01:47.309Z,1.73
2023-05-13T11:04:21.567Z,1.63
2023-05-13T11:06:50.692Z,1.92
2023-05-13T11:09:21.335Z,2.05
2023-05-13T11:11:59.447Z,1.77
2023-05-13T11:14:28.104Z,1.90
2023-05-13T11:17:01.920Z,1.80
2023-05-13T11:19:32.642Z,1.90
2023-05-13T11:22:08.565Z,1.42
2023-05-13T11:24:36.547Z,1.98
2023-05-13T11:27:18.331Z,1.70
2023-05-13T11:29:56.429Z,2.03
2023-05-13T11:32:51.867Z,2.08
2023-05-13T11:35:30.525Z,1.60
2023-05-13T11:38:00.648Z,1.35
2023-05-13T11:40:41.683Z,2.05
2023-05-13T11:43:10.888Z,1.90
2023-05-13T11:45:40.257Z,2.33
2023-05-13T11:48:24.057Z,2.05
2023-05-13T11:50:54.025Z,1.98
2023-05-13T11:53:22.554Z,2.13
2023-05-13T11:55:50.049Z,1.83
2023-05-13T11:58:17.335Z,1.90
2023-05-13T12:00:46.540Z,1.40
2023-05-13T12:03:17.610Z,1.83
2023-05-13T12:05:44.986Z,1.73
2023-05-13T12:08:11.953Z,1.83
2023-05-13T12:10:45.780Z,2.25
2023-05-13T12:13:13.049Z,1.77
2023-05-13T12:15:41.382Z,2.10
2023-05-13T12:18:08.433Z,1.95
2023-05-13T12:20:36.206Z,2.30
2023-05-13T12:23:04.471Z,2.25
2023-05-13T12:25:53.768Z,2.00
2023-05-13T12:28:25.614Z,1.92
2023-05-13T12:31:02.054Z,1.98
2023-05-13T12:33:31.934Z,1.77
2023-05-13T12:36:26.242Z,2.00
2023-05-13T12:39:01.136Z,1.65
2023-05-13T12:44:04.203Z,1.65
2023-05-13T12:46:31.494Z,2.00
2023-05-13T12:49:01.443Z,2.00
2023-05-13T12:51:33.658Z,1.95
2023-05-13T12:54:00.894Z,2.13
2023-05-13T12:56:28.077Z,1.75
2023-05-13T12:58:55.356Z,1.63
2023-05-13T13:01:22.785Z,1.95
2023-05-13T13:03:50.166Z,1.90
2023-05-13T13:06:17.465Z,2.22
2023-05-13T13:08:44.550Z,2.38
2023-05-13T13:11:18.244Z,2.00
2023-05-13T13:13:46.132Z,1.85
2023-05-13T13:16:13.422Z,1.88
2023-05-13T13:18:41.456Z,1.90
2023-05-13T13:21:08.653Z,2.20
2023-05-13T13:23:35.553Z,2.00
2023-05-13T13:26:03.075Z,1.83
2023-05-13T13:28:31.659Z,1.90
2023-05-13T13:30:59.888Z,1.52
2023-05-13T13:33:27.588Z,1.83
2023-05-13T13:35:54.997Z,1.67
2023-05-13T13:38:21.928Z,1.73
2023-05-13T13:40:48.873Z,1.85
2023-05-13T13:43:15.889Z,1.90
2023-05-13T13:45:42.971Z,1.83
2023-05-13T13:48:10.441Z,1.90
2023-05-13T13:50:37.646Z,1.90
2023-05-13T13:53:04.737Z,2.00
2023-05-13T13:55:31.888Z,2.05
2023-05-13T13:57:59.049Z,2.10
2023-05-13T14:00:26.602Z,2.08
2023-05-13T14:02:54.018Z,2.20
2023-05-13T14:05:21.318Z,2.03
2023-05-13T14:07:49.525Z,2.10
2023-05-13T14:10:16.517Z,2.25
2023-05-13T14:12:43.504Z,2.22
2023-05-13T14:15:11.170Z,2.10
2023-05-13T14:17:38.335Z,2.10
2023-05-13T14:20:06.829Z,1.90
2023-05-13T14:22:33.968Z,2.15
2023-05-13T14:25:01.308Z,2.08
2023-05-13T14:27:29.216Z,2.17
2023-05-13T14:29:56.109Z,2.25
2023-05-13T14:32:22.977Z,2.20
2023-05-13T14:34:49.851Z,2.17
2023-05-13T14:37:16.869Z,2.15
2023-05-13T14:39:43.830Z,2.00
2023-05-13T14:42:11.496Z,1.77
2023-05-13T14:44:38.674Z,1.90
2023-05-13T14:47:06.552Z,2.50
2023-05-13T14:49:33.533Z,2.30
2023-05-13T14:52:00.626Z,2.15
2023-05-13T14:54:27.713Z,2.00
2023-05-13T14:56:54.743Z,2.05
2023-05-13T14:59:21.702Z,1.77
2023-05-13T15:01:48.684Z,1.92
2023-05-13T15:04:15.878Z,2.20
2023-05-13T15:06:43.020Z,2.03
2023-05-13T15:09:10.110Z,1.85
2023-05-13T15:11:39.946Z,2.03
2023-05-13T15:14:08.089Z,1.95
2023-05-13T15:16:35.130Z,2.10
2023-05-13T15:19:03.181Z,2.05
2023-05-13T15:21:31.163Z,2.10
2023-05-13T15:23:58.298Z,1.90
2023-05-13T15:26:25.881Z,1.98
2023-05-13T15:28:52.940Z,2.25
2023-05-13T15:31:20.134Z,2.25
2023-05-13T15:33:47.315Z,2.17
2023-05-13T15:36:14.329Z,2.50
2023-05-13T15:38:41.832Z,2.25
2023-05-13T15:41:08.828Z,2.40
2023-05-13T15:43:36.090Z,3.50
2023-05-13T15:46:03.507Z,2.65
2023-05-13T15:48:30.668Z,2.15
2023-05-13T15:50:57.689Z,2.70
2023-05-13T15:53:24.708Z,2.78
2023-05-13T15:55:52.058Z,2.72
2023-05-13T15:58:19.045Z,3.35
2023-05-13T16:00:46.065Z,3.53
2023-05-13T16:03:13.254Z,3.40
2023-05-13T16:05:40.444Z,3.22
2023-05-13T16:08:07.391Z,3.53
2023-05-13T16:10:35.656Z,3.25
2023-05-13T16:13:02.882Z,3.08
2023-05-13T16:15:29.843Z,3.28
2023-05-13T16:17:56.958Z,3.22
2023-05-13T16:20:24.355Z,3.33
2023-05-13T16:22:51.565Z,4.30
2023-05-13T16:25:18.468Z,3.17
2023-05-13T16:27:45.689Z,3.10
2023-05-13T16:30:13.080Z,3.00
2023-05-13T16:32:40.223Z,3.28
2023-05-13T16:35:09.941Z,3.38
2023-05-13T16:37:37.254Z,2.90
2023-05-13T16:40:05.092Z,2.80
2023-05-13T16:42:32.260Z,2.67
2023-05-13T16:44:59.298Z,2.80
2023-05-13T16:47:26.399Z,2.85
2023-05-13T16:49:56.053Z,2.85
2023-05-13T16:52:24.203Z,2.78
2023-05-13T16:54:51.444Z,3.20
2023-05-13T16:57:22.270Z,2.92
2023-05-13T16:59:49.399Z,3.42
2023-05-13T17:02:16.713Z,2.80
2023-05-13T17:04:43.883Z,2.45
2023-05-13T17:07:10.797Z,2.83
2023-05-13T17:09:37.996Z,2.65
2023-05-13T17:12:05.317Z,3.42
2023-05-13T17:14:32.208Z,2.90
2023-05-13T17:16:59.341Z,2.63
2023-05-13T17:19:26.264Z,2.70
2023-05-13T17:21:53.330Z,2.25
2023-05-13T17:24:22.281Z,2.50
2023-05-13T17:26:50.318Z,2.70
2023-05-13T17:29:17.275Z,2.67
2023-05-13T17:31:44.536Z,3.05
2023-05-13T17:34:12.085Z,2.53
2023-05-13T17:36:39.114Z,2.70
2023-05-13T17:39:06.659Z,3.50
2023-05-13T17:41:33.609Z,3.13
2023-05-13T17:44:00.603Z,3.58
2023-05-13T17:46:28.232Z,3.03
2023-05-13T17:48:56.162Z,3.25
2023-05-13T17:51:23.322Z,3.50
2023-05-13T17:53:50.375Z,3.67
2023-05-13T17:56:17.359Z,3.15
2023-05-13T17:58:44.359Z,3.65
2023-05-13T18:01:11.269Z,3.05
2023-05-13T18:03:38.272Z,3.22
2023-05-13T18:06:05.776Z,3.10
2023-05-13T18:08:32.862Z,2.70
2023-05-13T18:11:00.049Z,2.90
2023-05-13T18:13:27.020Z,2.97
2023-05-13T18:15:54.039Z,2.58
2023-05-13T18:18:21.199Z,3.08
2023-05-13T18:20:48.272Z,2.72
2023-05-13T18:23:15.709Z,2.58
2023-05-13T18:25:52.442Z,2.95
2023-05-13T18:28:22.678Z,2.80
2023-05-13T18:30:49.977Z,3.08
2023-05-13T18:33:19.711Z,3.10
2023-05-13T18:35:46.688Z,2.88
2023-05-13T18:38:13.800Z,2.88
2023-05-13T18:40:41.022Z,2.65
2023-05-13T18:43:08.046Z,2.90
2023-05-13T18:45:37.591Z,2.83
2023-05-13T18:48:05.124Z,2.95
2023-05-13T18:50:32.193Z,2.90
2023-05-13T18:52:59.267Z,3.75
2023-05-13T18:55:26.383Z,4.30
2023-05-13T18:57:53.451Z,4.57
2023-05-13T19:00:20.665Z,4.80
2023-05-13T19:02:47.875Z,4.68
2023-05-13T19:05:15.220Z,5.13
2023-05-13T19:07:42.818Z,5.47
2023-05-13T19:10:10.567Z,4.90
2023-05-13T19:12:37.741Z,5.43
2023-05-13T19:15:05.381Z,4.93
2023-05-13T19:17:32.808Z,4.55
2023-05-13T19:20:00.450Z,4.65
2023-05-13T19:22:27.573Z,5.22
2023-05-13T19:24:54.693Z,5.40
2023-05-13T19:27:22.042Z,5.45
2023-05-13T19:29:49.426Z,5.10
2023-05-13T19:32:16.681Z,5.30
2023-05-13T19:34:43.587Z,5.70
2023-05-13T19:37:10.796Z,5.03
2023-05-13T19:39:38.070Z,5.07
2023-05-13T19:42:05.470Z,4.75
2023-05-13T19:44:33.871Z,4.50
2023-05-13T19:47:01.261Z,5.03
2023-05-13T19:49:28.358Z,5.05
2023-05-13T19:51:55.390Z,4.82
2023-05-13T19:54:22.417Z,5.28
2023-05-13T19:56:49.327Z,5.10
2023-05-13T19:59:16.484Z,5.13
2023-05-13T20:01:43.608Z,5.25
2023-05-13T20:04:10.630Z,5.22
2023-05-13T20:06:37.697Z,6.22
2023-05-13T20:09:05.831Z,8.10
2023-05-13T20:11:33.042Z,13.48
2023-05-13T20:13:59.966Z,9.35
2023-05-13T20:16:26.920Z,7.07
2023-05-13T20:18:53.966Z,5.80
2023-05-13T20:21:20.995Z,5.18
2023-05-13T20:23:47.951Z,5.32
2023-05-13T20:26:15.079Z,5.38
2023-05-13T20:28:42.032Z,6.60
2023-05-13T20:31:08.973Z,5.35
2023-05-13T20:33:36.951Z,7.53
2023-05-13T20:36:06.287Z,6.93
2023-05-13T20:38:33.360Z,9.73
2023-05-13T20:41:00.841Z,9.48
2023-05-13T20:43:27.913Z,8.85
2023-05-13T20:45:54.913Z,7.63
2023-05-13T20:48:21.958Z,8.93
2023-05-13T20:50:49.015Z,7.45
2023-05-13T20:53:16.471Z,12.60
2023-05-13T20:55:43.516Z,11.02
2023-05-13T20:58:12.168Z,8.60
2023-05-13T21:00:39.234Z,7.53
2023-05-13T21:03:06.384Z,7.22
2023-05-13T21:05:33.318Z,7.22
2023-05-13T21:08:00.412Z,6.90
2023-05-13T21:10:27.452Z,7.40
2023-05-13T21:12:54.428Z,7.60
2023-05-13T21:15:21.337Z,7.03
2023-05-13T21:17:48.583Z,8.23
2023-05-13T21:20:16.161Z,9.05
2023-05-13T21:22:43.049Z,10.45
2023-05-13T21:25:10.135Z,11.10
2023-05-13T21:27:37.126Z,12.18
2023-05-13T21:30:05.513Z,14.63
2023-05-13T21:32:33.142Z,19.52
2023-05-13T21:35:00.338Z,17.27
2023-05-13T21:37:27.375Z,15.10
2023-05-13T21:39:54.274Z,15.05
2023-05-13T21:42:21.726Z,17.63
2023-05-13T21:44:48.679Z,16.92
2023-05-13T21:47:15.697Z,17.17
2023-05-13T21:49:42.779Z,14.48
2023-05-13T21:52:09.681Z,13.45
2023-05-13T21:54:36.785Z,15.15
2023-05-13T21:57:04.572Z,13.10
2023-05-13T21:59:31.477Z,10.57
2023-05-13T22:01:58.501Z,11.75
2023-05-13T22:04:26.733Z,11.35
2023-05-13T22:06:53.945Z,12.20
2023-05-13T22:09:21.048Z,10.38
2023-05-13T22:11:48.113Z,9.95
2023-05-13T22:14:15.235Z,9.98
2023-05-13T22:16:42.447Z,23.95
2023-05-13T22:19:09.486Z,13.63
2023-05-13T22:21:36.879Z,11.02
2023-05-13T22:24:06.214Z,10.55
2023-05-13T22:26:33.461Z,11.05
2023-05-13T22:29:00.856Z,15.88
2023-05-13T22:31:27.812Z,14.07
2023-05-13T22:33:54.881Z,11.88
2023-05-13T22:36:22.181Z,12.20
2023-05-13T22:38:49.376Z,12.30
2023-05-13T22:41:18.947Z,11.55
2023-05-13T22:43:46.087Z,14.05
2023-05-13T22:46:13.206Z,12.30
2023-05-13T22:48:40.109Z,10.63
2023-05-13T22:51:07.216Z,9.55
2023-05-13T22:53:34.714Z,16.35
2023-05-13T22:56:01.754Z,11.43
2023-05-13T22:58:28.805Z,10.02
2023-05-13T23:00:55.854Z,9.63
2023-05-13T23:03:23.015Z,9.23
2023-05-13T23:05:50.233Z,9.32
2023-05-13T23:08:17.591Z,9.55
2023-05-13T23:10:44.639Z,9.23
2023-05-13T23:13:11.732Z,10.38
2023-05-13T23:15:38.868Z,9.63
2023-05-13T23:18:06.105Z,9.75
2023-05-13T23:20:33.531Z,11.63
2023-05-13T23:23:00.547Z,13.27
2023-05-13T23:25:27.524Z,12.82
2023-05-13T23:27:54.823Z,13.45
2023-05-13T23:30:22.324Z,11.45
2023-05-13T23:32:49.545Z,11.13
2023-05-13T23:35:16.720Z,9.93
2023-05-13T23:37:43.917Z,9.10
2023-05-13T23:40:11.746Z,8.90
2023-05-13T23:42:39.014Z,9.35
2023-05-13T23:45:07.337Z,9.88
2023-05-13T23:47:34.621Z,12.85
2023-05-13T23:50:02.341Z,10.05
2023-05-13T23:52:29.607Z,9.00
2023-05-13T23:54:56.588Z,8.88
2023-05-13T23:57:23.716Z,8.23
2023-05-13T23:59:50.940Z,8.43
